createdAt,value
2016-09-28T00:00:25.461Z,0
2016-09-28T00:00:57.796Z,0
2016-09-28T00:01:30.123Z,0
2016-09-28T00:02:02.448Z,0
2016-09-28T00:02:34.771Z,0
2016-09-28T00:03:07.097Z,0
2016-09-28T00:03:39.430Z,0
2016-09-28T00:04:11.763Z,0
2016-09-28T00:04:44.092Z,0
2016-09-28T00:05:16.405Z,0
2016-09-28T00:05:48.736Z,0
2016-09-28T00:06:21.992Z,0
2016-09-28T00:06:55.218Z,0
2016-09-28T00:07:27.623Z,0
2016-09-28T00:07:59.937Z,0
2016-09-28T00:08:32.265Z,0
2016-09-28T00:09:04.604Z,0
2016-09-28T00:09:36.926Z,0
2016-09-28T00:10:09.236Z,0
2016-09-28T00:10:41.560Z,0
2016-09-28T00:11:13.868Z,0
2016-09-28T00:11:46.207Z,0
2016-09-28T00:12:18.542Z,0
2016-09-28T00:12:50.858Z,0
2016-09-28T00:13:23.186Z,0
2016-09-28T00:13:55.507Z,0
2016-09-28T00:14:27.832Z,0
2016-09-28T00:15:00.145Z,0
2016-09-28T00:15:32.467Z,0
2016-09-28T00:16:04.793Z,0
2016-09-28T00:16:37.120Z,0
2016-09-28T00:17:09.446Z,0
2016-09-28T00:17:41.762Z,0
2016-09-28T00:18:14.089Z,0
2016-09-28T00:18:46.407Z,0
2016-09-28T00:19:18.735Z,0
2016-09-28T00:19:51.068Z,0
2016-09-28T00:20:23.396Z,0
2016-09-28T00:20:55.720Z,0
2016-09-28T00:21:28.043Z,0
2016-09-28T00:22:00.377Z,0
2016-09-28T00:22:32.708Z,0
2016-09-28T00:23:05.017Z,0
2016-09-28T00:23:37.345Z,0
2016-09-28T00:24:09.669Z,0
2016-09-28T00:24:41.994Z,0
2016-09-28T00:25:14.349Z,0
2016-09-28T00:25:46.679Z,0
2016-09-28T00:26:19.005Z,0
2016-09-28T00:26:51.326Z,0
2016-09-28T00:27:23.637Z,0
2016-09-28T00:27:55.959Z,0
2016-09-28T00:28:28.274Z,0
2016-09-28T00:29:00.604Z,0
2016-09-28T00:29:33.032Z,0
2016-09-28T00:30:05.347Z,0
2016-09-28T00:30:37.675Z,0
2016-09-28T00:31:10.029Z,0
2016-09-28T00:31:42.369Z,0
2016-09-28T00:32:14.700Z,0
2016-09-28T00:32:47.021Z,0
2016-09-28T00:33:19.351Z,0
2016-09-28T00:33:51.672Z,0
2016-09-28T00:34:24.008Z,0
2016-09-28T00:34:56.328Z,0
2016-09-28T00:35:28.676Z,0
2016-09-28T00:36:01.020Z,0
2016-09-28T00:36:33.363Z,0
2016-09-28T00:37:05.689Z,0
2016-09-28T00:37:38.025Z,0
2016-09-28T00:38:10.353Z,0
2016-09-28T00:38:42.691Z,0
2016-09-28T00:39:15.016Z,0
2016-09-28T00:39:47.320Z,0
2016-09-28T00:40:19.654Z,0
2016-09-28T00:40:51.989Z,0
2016-09-28T00:41:24.333Z,0
2016-09-28T00:41:56.677Z,0
2016-09-28T00:42:29.000Z,0
2016-09-28T00:43:01.346Z,0
2016-09-28T00:43:33.680Z,0
2016-09-28T00:44:06.005Z,0
2016-09-28T00:44:38.323Z,0
2016-09-28T00:45:10.656Z,0
2016-09-28T00:45:42.979Z,0
2016-09-28T00:46:15.291Z,0
2016-09-28T00:46:47.619Z,0
2016-09-28T00:47:19.946Z,0
2016-09-28T00:47:52.248Z,0
2016-09-28T00:48:24.572Z,0
2016-09-28T00:48:56.903Z,0
2016-09-28T00:49:29.229Z,0
2016-09-28T00:50:01.547Z,0
2016-09-28T00:50:33.880Z,0
2016-09-28T00:51:06.198Z,0
2016-09-28T00:51:38.525Z,0
2016-09-28T00:52:10.854Z,0
2016-09-28T00:52:43.170Z,0
2016-09-28T00:53:15.485Z,0
2016-09-28T00:53:47.813Z,0
2016-09-28T00:54:20.139Z,0
2016-09-28T00:54:52.459Z,0
2016-09-28T00:55:24.796Z,0
2016-09-28T00:55:57.110Z,0
2016-09-28T00:56:29.446Z,0
2016-09-28T00:57:01.764Z,0
2016-09-28T00:57:34.089Z,0
2016-09-28T00:58:06.413Z,0
2016-09-28T00:58:38.743Z,0
2016-09-28T00:59:11.059Z,0
2016-09-28T00:59:43.383Z,0
2016-09-28T01:00:15.714Z,0
2016-09-28T01:00:48.045Z,0
2016-09-28T01:01:20.370Z,0
2016-09-28T01:01:52.685Z,0
2016-09-28T01:02:25.023Z,0
2016-09-28T01:02:57.338Z,0
2016-09-28T01:03:29.671Z,0
2016-09-28T01:04:01.989Z,0
2016-09-28T01:04:34.307Z,0
2016-09-28T01:05:06.629Z,0
2016-09-28T01:05:38.955Z,0
2016-09-28T01:06:11.293Z,0
2016-09-28T01:06:43.613Z,0
2016-09-28T01:07:15.934Z,0
2016-09-28T01:07:48.256Z,0
2016-09-28T01:08:20.593Z,0
2016-09-28T01:08:52.915Z,0
2016-09-28T01:09:25.232Z,0
2016-09-28T01:09:57.573Z,0
2016-09-28T01:10:29.900Z,0
2016-09-28T01:11:02.219Z,0
2016-09-28T01:11:34.550Z,0
2016-09-28T01:12:06.869Z,0
2016-09-28T01:12:39.190Z,0
2016-09-28T01:13:11.520Z,0
2016-09-28T01:13:43.835Z,0
2016-09-28T01:14:16.163Z,0
2016-09-28T01:14:48.512Z,0
2016-09-28T01:15:20.849Z,0
2016-09-28T01:15:53.174Z,0
2016-09-28T01:16:25.489Z,0
2016-09-28T01:16:57.813Z,0
2016-09-28T01:17:30.122Z,0
2016-09-28T01:18:02.438Z,0
2016-09-28T01:18:34.746Z,0
2016-09-28T01:19:07.077Z,0
2016-09-28T01:19:39.400Z,0
2016-09-28T01:20:11.725Z,0
2016-09-28T01:20:44.040Z,0
2016-09-28T01:21:16.348Z,0
2016-09-28T01:21:48.668Z,0
2016-09-28T01:22:21.002Z,0
2016-09-28T01:22:54.299Z,0
2016-09-28T01:23:26.613Z,0
2016-09-28T01:23:58.922Z,0
2016-09-28T01:24:31.249Z,0
2016-09-28T01:25:03.564Z,0
2016-09-28T01:25:35.877Z,0
2016-09-28T01:26:08.199Z,0
2016-09-28T01:26:40.531Z,0
2016-09-28T01:27:12.861Z,0
2016-09-28T01:27:45.187Z,0
2016-09-28T01:28:17.514Z,0
2016-09-28T01:28:49.832Z,0
2016-09-28T01:29:22.154Z,0
2016-09-28T01:29:54.471Z,0
2016-09-28T01:30:26.804Z,0
2016-09-28T01:30:59.133Z,0
2016-09-28T01:31:31.465Z,0
2016-09-28T01:32:03.790Z,0
2016-09-28T01:32:36.108Z,0
2016-09-28T01:33:08.431Z,0
2016-09-28T01:33:40.757Z,0
2016-09-28T01:34:13.078Z,0
2016-09-28T01:34:45.407Z,0
2016-09-28T01:35:17.729Z,0
2016-09-28T01:35:50.058Z,0
2016-09-28T01:36:22.380Z,0
2016-09-28T01:36:54.702Z,0
2016-09-28T01:37:27.032Z,0
2016-09-28T01:37:59.361Z,0
2016-09-28T01:38:31.686Z,0
2016-09-28T01:39:04.005Z,0
2016-09-28T01:39:36.322Z,0
2016-09-28T01:40:08.641Z,0
2016-09-28T01:40:40.969Z,0
2016-09-28T01:41:13.302Z,0
2016-09-28T01:41:45.620Z,0
2016-09-28T01:42:17.972Z,0
2016-09-28T01:42:50.296Z,0
2016-09-28T01:43:22.634Z,0
2016-09-28T01:43:54.976Z,0
2016-09-28T01:44:27.292Z,0
2016-09-28T01:44:59.627Z,0
2016-09-28T01:45:31.944Z,0
2016-09-28T01:46:04.258Z,0
2016-09-28T01:46:36.581Z,0
2016-09-28T01:47:08.907Z,0
2016-09-28T01:47:41.236Z,0
2016-09-28T01:48:13.575Z,0
2016-09-28T01:48:45.896Z,0
2016-09-28T01:49:18.223Z,0
2016-09-28T01:49:50.556Z,0
2016-09-28T01:50:22.898Z,0
2016-09-28T01:50:55.222Z,0
2016-09-28T01:51:27.548Z,0
2016-09-28T01:51:59.873Z,0
2016-09-28T01:52:32.197Z,0
2016-09-28T01:53:04.521Z,0
2016-09-28T01:53:36.843Z,0
2016-09-28T01:54:09.168Z,0
2016-09-28T01:54:41.495Z,0
2016-09-28T01:55:13.818Z,0
2016-09-28T01:55:46.146Z,0
2016-09-28T01:56:18.462Z,0
2016-09-28T01:56:50.775Z,0
2016-09-28T01:57:23.113Z,0
2016-09-28T01:57:55.443Z,0
2016-09-28T01:58:27.766Z,0
2016-09-28T01:59:00.103Z,0
2016-09-28T01:59:32.407Z,0
2016-09-28T02:00:04.745Z,0
2016-09-28T02:00:37.072Z,0
2016-09-28T02:01:09.385Z,0
2016-09-28T02:01:41.695Z,0
2016-09-28T02:02:14.000Z,0
2016-09-28T02:02:46.325Z,0
2016-09-28T02:03:18.648Z,0
2016-09-28T02:03:50.981Z,0
2016-09-28T02:04:23.300Z,0
2016-09-28T02:04:55.636Z,0
2016-09-28T02:05:27.950Z,0
2016-09-28T02:06:00.280Z,0
2016-09-28T02:06:32.610Z,0
2016-09-28T02:07:04.928Z,0
2016-09-28T02:07:37.262Z,0
2016-09-28T02:08:09.588Z,0
2016-09-28T02:08:41.918Z,0
2016-09-28T02:09:14.247Z,0
2016-09-28T02:09:46.572Z,0
2016-09-28T02:10:18.902Z,0
2016-09-28T02:10:51.237Z,0
2016-09-28T02:11:23.556Z,0
2016-09-28T02:11:55.876Z,0
2016-09-28T02:12:28.189Z,0
2016-09-28T02:13:00.507Z,0
2016-09-28T02:13:32.826Z,0
2016-09-28T02:14:05.155Z,0
2016-09-28T02:14:37.478Z,0
2016-09-28T02:15:09.800Z,0
2016-09-28T02:15:42.122Z,0
2016-09-28T02:16:14.448Z,0
2016-09-28T02:16:46.780Z,0
2016-09-28T02:17:19.106Z,0
2016-09-28T02:17:51.419Z,0
2016-09-28T02:18:23.746Z,0
2016-09-28T02:18:56.061Z,0
2016-09-28T02:19:28.392Z,0
2016-09-28T02:20:00.720Z,0
2016-09-28T02:20:33.050Z,0
2016-09-28T02:21:05.372Z,0
2016-09-28T02:21:37.709Z,0
2016-09-28T02:22:10.045Z,0
2016-09-28T02:22:42.377Z,0
2016-09-28T02:23:14.693Z,0
2016-09-28T02:23:47.022Z,0
2016-09-28T02:24:19.345Z,0
2016-09-28T02:24:51.669Z,0
2016-09-28T02:25:23.996Z,0
2016-09-28T02:25:56.328Z,0
2016-09-28T02:26:28.660Z,0
2016-09-28T02:27:00.981Z,0
2016-09-28T02:27:33.306Z,0
2016-09-28T02:28:05.627Z,0
2016-09-28T02:28:37.950Z,0
2016-09-28T02:29:10.284Z,0
2016-09-28T02:29:42.603Z,0
2016-09-28T02:30:14.926Z,0
2016-09-28T02:30:47.257Z,0
2016-09-28T02:31:19.588Z,0
2016-09-28T02:31:51.911Z,0
2016-09-28T02:32:24.241Z,0
2016-09-28T02:32:56.548Z,0
2016-09-28T02:33:28.873Z,0
2016-09-28T02:34:01.191Z,0
2016-09-28T02:34:33.525Z,0
2016-09-28T02:35:05.847Z,0
2016-09-28T02:35:38.165Z,0
2016-09-28T02:36:10.504Z,0
2016-09-28T02:36:42.830Z,0
2016-09-28T02:37:15.140Z,0
2016-09-28T02:37:47.451Z,0
2016-09-28T02:38:19.774Z,0
2016-09-28T02:38:52.114Z,0
2016-09-28T02:39:24.449Z,0
2016-09-28T02:39:56.775Z,0
2016-09-28T02:40:29.085Z,0
2016-09-28T02:41:01.399Z,0
2016-09-28T02:41:33.735Z,0
2016-09-28T02:42:06.051Z,0
2016-09-28T02:42:38.376Z,0
2016-09-28T02:43:10.719Z,0
2016-09-28T02:43:43.052Z,0
2016-09-28T02:44:15.384Z,0
2016-09-28T02:44:47.722Z,0
2016-09-28T02:45:20.037Z,0
2016-09-28T02:45:52.366Z,0
2016-09-28T02:46:24.672Z,0
2016-09-28T02:46:56.972Z,0
2016-09-28T02:47:29.300Z,0
2016-09-28T02:48:01.646Z,0
2016-09-28T02:48:33.975Z,0
2016-09-28T02:49:06.310Z,0
2016-09-28T02:49:38.636Z,0
2016-09-28T02:50:10.951Z,0
2016-09-28T02:50:43.280Z,0
2016-09-28T02:51:15.598Z,0
2016-09-28T02:51:47.929Z,0
2016-09-28T02:52:20.246Z,0
2016-09-28T02:52:52.581Z,0
2016-09-28T02:53:24.888Z,0
2016-09-28T02:53:57.231Z,0
2016-09-28T02:54:29.550Z,0
2016-09-28T02:55:01.881Z,0
2016-09-28T02:55:34.198Z,0
2016-09-28T02:56:06.536Z,0
2016-09-28T02:56:38.866Z,0
2016-09-28T02:57:11.209Z,0
2016-09-28T02:57:43.552Z,0
2016-09-28T02:58:15.871Z,0
2016-09-28T02:58:48.198Z,0
2016-09-28T02:59:20.540Z,0
2016-09-28T02:59:52.870Z,0
2016-09-28T03:00:25.211Z,0
2016-09-28T03:00:57.541Z,0
2016-09-28T03:01:29.863Z,0
2016-09-28T03:02:02.180Z,0
2016-09-28T03:02:34.505Z,0
2016-09-28T03:03:06.832Z,0
2016-09-28T03:03:39.168Z,0
2016-09-28T03:04:11.499Z,0
2016-09-28T03:04:43.816Z,0
2016-09-28T03:05:16.145Z,0
2016-09-28T03:05:48.470Z,0
2016-09-28T03:06:20.788Z,0
2016-09-28T03:06:53.123Z,0
2016-09-28T03:07:25.436Z,0
2016-09-28T03:07:57.764Z,0
2016-09-28T03:08:30.091Z,0
2016-09-28T03:09:02.414Z,0
2016-09-28T03:09:34.737Z,0
2016-09-28T03:10:07.060Z,0
2016-09-28T03:10:39.395Z,0
2016-09-28T03:11:11.749Z,0
2016-09-28T03:11:44.087Z,0
2016-09-28T03:12:16.410Z,0
2016-09-28T03:12:48.730Z,0
2016-09-28T03:13:21.045Z,0
2016-09-28T03:13:53.368Z,0
2016-09-28T03:14:25.701Z,0
2016-09-28T03:14:58.032Z,0
2016-09-28T03:15:30.351Z,0
2016-09-28T03:16:02.681Z,0
2016-09-28T03:16:35.014Z,0
2016-09-28T03:17:07.310Z,0
2016-09-28T03:17:39.646Z,0
2016-09-28T03:18:11.951Z,0
2016-09-28T03:18:44.276Z,0
2016-09-28T03:19:16.595Z,0
2016-09-28T03:19:48.925Z,0
2016-09-28T03:20:21.248Z,0
2016-09-28T03:20:53.584Z,0
2016-09-28T03:21:25.898Z,0
2016-09-28T03:21:58.215Z,0
2016-09-28T03:22:30.546Z,0
2016-09-28T03:23:02.863Z,0
2016-09-28T03:23:35.206Z,0
2016-09-28T03:24:07.520Z,0
2016-09-28T03:24:39.837Z,0
2016-09-28T03:25:12.159Z,0
2016-09-28T03:25:44.477Z,0
2016-09-28T03:26:16.811Z,0
2016-09-28T03:26:49.138Z,0
2016-09-28T03:27:21.461Z,0
2016-09-28T03:27:53.781Z,0
2016-09-28T03:28:26.115Z,0
2016-09-28T03:28:58.435Z,0
2016-09-28T03:29:30.759Z,0
2016-09-28T03:30:03.082Z,0
2016-09-28T03:30:35.408Z,0
2016-09-28T03:31:07.740Z,0
2016-09-28T03:31:40.071Z,0
2016-09-28T03:32:12.385Z,0
2016-09-28T03:32:44.718Z,0
2016-09-28T03:33:17.049Z,0
2016-09-28T03:33:49.369Z,0
2016-09-28T03:34:21.699Z,0
2016-09-28T03:34:54.040Z,0
2016-09-28T03:35:26.375Z,0
2016-09-28T03:35:58.709Z,0
2016-09-28T03:36:31.040Z,0
2016-09-28T03:37:03.358Z,0
2016-09-28T03:37:35.667Z,0
2016-09-28T03:38:07.988Z,0
2016-09-28T03:38:40.312Z,0
2016-09-28T03:39:12.628Z,0
2016-09-28T03:39:44.954Z,0
2016-09-28T03:40:17.294Z,0
2016-09-28T03:40:49.621Z,0
2016-09-28T03:41:21.961Z,0
2016-09-28T03:41:54.280Z,0
2016-09-28T03:42:26.613Z,0
2016-09-28T03:42:58.937Z,0
2016-09-28T03:43:31.257Z,0
2016-09-28T03:44:03.568Z,0
2016-09-28T03:44:35.871Z,0
2016-09-28T03:45:08.205Z,0
2016-09-28T03:45:40.538Z,0
2016-09-28T03:46:12.864Z,0
2016-09-28T03:46:45.192Z,0
2016-09-28T03:47:17.512Z,0
2016-09-28T03:47:49.846Z,0
2016-09-28T03:48:22.163Z,0
2016-09-28T03:48:54.481Z,0
2016-09-28T03:49:26.808Z,0
2016-09-28T03:49:59.130Z,0
2016-09-28T03:50:31.454Z,0
2016-09-28T03:51:03.769Z,0
2016-09-28T03:51:36.101Z,0
2016-09-28T03:52:08.427Z,0
2016-09-28T03:52:40.752Z,0
2016-09-28T03:53:13.092Z,0
2016-09-28T03:53:45.438Z,0
2016-09-28T03:54:17.773Z,0
2016-09-28T03:54:50.097Z,0
2016-09-28T03:55:22.427Z,0
2016-09-28T03:55:54.757Z,0
2016-09-28T03:56:27.090Z,0
2016-09-28T03:56:59.411Z,0
2016-09-28T03:57:31.745Z,0
2016-09-28T03:58:04.066Z,0
2016-09-28T03:58:36.390Z,0
2016-09-28T03:59:08.691Z,0
2016-09-28T03:59:41.004Z,0
2016-09-28T04:00:13.331Z,0
2016-09-28T04:00:45.653Z,0
2016-09-28T04:01:17.991Z,0
2016-09-28T04:01:50.323Z,0
2016-09-28T04:02:22.669Z,0
2016-09-28T04:02:55.005Z,0
2016-09-28T04:03:27.343Z,0
2016-09-28T04:03:59.681Z,0
2016-09-28T04:04:32.009Z,0
2016-09-28T04:05:04.324Z,0
2016-09-28T04:05:36.664Z,0
2016-09-28T04:06:08.985Z,0
2016-09-28T04:06:41.313Z,0
2016-09-28T04:07:13.615Z,0
2016-09-28T04:07:45.931Z,0
2016-09-28T04:08:18.250Z,0
2016-09-28T04:08:50.562Z,0
2016-09-28T04:09:22.884Z,0
2016-09-28T04:09:55.226Z,0
2016-09-28T04:10:27.540Z,0
2016-09-28T04:10:59.867Z,0
2016-09-28T04:11:32.203Z,0
2016-09-28T04:12:04.535Z,0
2016-09-28T04:12:36.864Z,0
2016-09-28T04:13:09.199Z,0
2016-09-28T04:13:41.508Z,0
2016-09-28T04:14:13.823Z,0
2016-09-28T04:14:46.153Z,0
2016-09-28T04:15:18.477Z,0
2016-09-28T04:15:50.796Z,0
2016-09-28T04:16:23.113Z,0
2016-09-28T04:16:55.443Z,0
2016-09-28T04:17:27.764Z,0
2016-09-28T04:18:00.080Z,0
2016-09-28T04:18:32.393Z,0
2016-09-28T04:19:04.715Z,0
2016-09-28T04:19:37.044Z,0
2016-09-28T04:20:09.376Z,0
2016-09-28T04:20:41.726Z,0
2016-09-28T04:21:14.047Z,0
2016-09-28T04:21:46.370Z,0
2016-09-28T04:22:18.720Z,0
2016-09-28T04:22:51.030Z,0
2016-09-28T04:23:23.366Z,0
2016-09-28T04:23:55.697Z,0
2016-09-28T04:24:28.014Z,0
2016-09-28T04:25:00.333Z,0
2016-09-28T04:25:32.661Z,0
2016-09-28T04:26:04.984Z,0
2016-09-28T04:26:37.316Z,0
2016-09-28T04:27:09.641Z,0
2016-09-28T04:27:41.964Z,0
2016-09-28T04:28:14.295Z,0
2016-09-28T04:28:46.599Z,0
2016-09-28T04:29:18.910Z,0
2016-09-28T04:29:51.216Z,0
2016-09-28T04:30:23.537Z,0
2016-09-28T04:30:55.853Z,0
2016-09-28T04:31:28.176Z,0
2016-09-28T04:32:00.496Z,0
2016-09-28T04:32:32.826Z,0
2016-09-28T04:33:05.146Z,0
2016-09-28T04:33:37.471Z,0
2016-09-28T04:34:09.801Z,0
2016-09-28T04:34:42.134Z,0
2016-09-28T04:35:14.469Z,0
2016-09-28T04:35:46.939Z,0
2016-09-28T04:36:19.271Z,0
2016-09-28T04:36:51.603Z,0
2016-09-28T04:37:23.930Z,0
2016-09-28T04:37:56.263Z,0
2016-09-28T04:38:28.587Z,0
2016-09-28T04:39:00.911Z,0
2016-09-28T04:39:33.232Z,0
2016-09-28T04:40:05.556Z,0
2016-09-28T04:40:37.874Z,0
2016-09-28T04:41:10.196Z,0
2016-09-28T04:41:42.536Z,0
2016-09-28T04:42:14.876Z,0
2016-09-28T04:42:47.201Z,0
2016-09-28T04:43:19.529Z,0
2016-09-28T04:43:51.864Z,0
2016-09-28T04:44:24.175Z,0
2016-09-28T04:44:56.507Z,0
2016-09-28T04:45:28.838Z,0
2016-09-28T04:46:01.199Z,0
2016-09-28T04:46:33.530Z,0
2016-09-28T04:47:05.848Z,0
2016-09-28T04:47:38.157Z,0
2016-09-28T04:48:10.484Z,0
2016-09-28T04:48:42.809Z,0
2016-09-28T04:49:15.136Z,0
2016-09-28T04:49:47.476Z,0
2016-09-28T04:50:19.807Z,0
2016-09-28T04:50:52.132Z,0
2016-09-28T04:51:24.445Z,0
2016-09-28T04:51:56.784Z,0
2016-09-28T04:52:29.104Z,0
2016-09-28T04:53:01.403Z,0
2016-09-28T04:53:33.721Z,0
2016-09-28T04:54:06.967Z,0
2016-09-28T04:54:39.297Z,0
2016-09-28T04:55:11.619Z,0
2016-09-28T04:55:43.966Z,0
2016-09-28T04:56:16.275Z,0
2016-09-28T04:56:48.606Z,0
2016-09-28T04:57:20.938Z,0
2016-09-28T04:57:53.262Z,0
2016-09-28T04:58:25.584Z,0
2016-09-28T04:58:57.906Z,0
2016-09-28T04:59:30.225Z,0
2016-09-28T05:00:02.552Z,0
2016-09-28T05:00:34.879Z,0
2016-09-28T05:01:07.196Z,0
2016-09-28T05:01:39.526Z,0
2016-09-28T05:02:11.843Z,0
2016-09-28T05:02:44.180Z,0
2016-09-28T05:03:16.513Z,0
2016-09-28T05:03:48.842Z,0
2016-09-28T05:04:21.167Z,0
2016-09-28T05:04:53.496Z,0
2016-09-28T05:05:25.814Z,0
2016-09-28T05:05:58.141Z,0
2016-09-28T05:06:30.467Z,0
2016-09-28T05:07:02.789Z,0
2016-09-28T05:07:35.118Z,0
2016-09-28T05:08:08.551Z,0
2016-09-28T05:08:40.879Z,0
2016-09-28T05:09:13.201Z,0
2016-09-28T05:09:45.506Z,0
2016-09-28T05:10:17.813Z,0
2016-09-28T05:10:50.154Z,0
2016-09-28T05:11:22.471Z,0
2016-09-28T05:11:55.040Z,0
2016-09-28T05:12:27.495Z,0
2016-09-28T05:12:59.820Z,0
2016-09-28T05:13:32.175Z,0
2016-09-28T05:14:04.497Z,0
2016-09-28T05:14:36.816Z,0
2016-09-28T05:15:09.152Z,0
2016-09-28T05:15:41.476Z,0
2016-09-28T05:16:13.809Z,0
2016-09-28T05:16:46.121Z,0
2016-09-28T05:17:18.587Z,0
2016-09-28T05:17:50.905Z,0
2016-09-28T05:18:23.240Z,0
2016-09-28T05:18:55.557Z,0
2016-09-28T05:19:27.896Z,0
2016-09-28T05:20:00.264Z,0
2016-09-28T05:20:32.597Z,0
2016-09-28T05:21:05.310Z,0
2016-09-28T05:21:37.635Z,0
2016-09-28T05:22:09.952Z,0
2016-09-28T05:22:42.274Z,0
2016-09-28T05:23:14.581Z,0
2016-09-28T05:23:46.914Z,0
2016-09-28T05:24:19.538Z,0
2016-09-28T05:24:51.847Z,0
2016-09-28T05:25:24.168Z,0
2016-09-28T05:25:56.484Z,0
2016-09-28T05:26:29.507Z,0
2016-09-28T05:27:01.816Z,0
2016-09-28T05:27:34.325Z,0
2016-09-28T05:28:06.635Z,0
2016-09-28T05:28:38.984Z,0
2016-09-28T05:29:11.295Z,0
2016-09-28T05:29:43.608Z,0
2016-09-28T05:30:15.942Z,0
2016-09-28T05:30:48.259Z,0
2016-09-28T05:31:20.593Z,0
2016-09-28T05:31:52.910Z,0
2016-09-28T05:32:25.217Z,0
2016-09-28T05:32:57.550Z,0
2016-09-28T05:33:29.883Z,0
2016-09-28T05:34:02.209Z,0
2016-09-28T05:34:34.525Z,0
2016-09-28T05:35:06.830Z,0
2016-09-28T05:35:39.141Z,0
2016-09-28T05:36:11.488Z,0
2016-09-28T05:36:43.801Z,5
2016-09-28T05:37:16.136Z,5
2016-09-28T05:37:48.470Z,5
2016-09-28T05:38:20.774Z,5
2016-09-28T05:38:53.891Z,5
2016-09-28T05:39:26.221Z,5
2016-09-28T05:39:58.530Z,5
2016-09-28T05:40:30.829Z,5
2016-09-28T05:41:03.150Z,5
2016-09-28T05:41:35.745Z,5
2016-09-28T05:42:08.336Z,5
2016-09-28T05:42:40.906Z,5
2016-09-28T05:43:13.459Z,5
2016-09-28T05:43:46.030Z,5
2016-09-28T05:44:19.550Z,5
2016-09-28T05:44:53.104Z,10
2016-09-28T05:45:26.454Z,10
2016-09-28T05:45:59.960Z,10
2016-09-28T05:46:33.481Z,10
2016-09-28T05:47:07.433Z,10
2016-09-28T05:47:41.263Z,10
2016-09-28T05:48:15.419Z,10
2016-09-28T05:48:48.812Z,10
2016-09-28T05:49:21.212Z,10
2016-09-28T05:49:53.527Z,10
2016-09-28T05:50:25.964Z,10
2016-09-28T05:50:58.284Z,10
2016-09-28T05:51:31.617Z,10
2016-09-28T05:52:03.957Z,10
2016-09-28T05:52:36.286Z,10
2016-09-28T05:53:09.889Z,10
2016-09-28T05:53:44.473Z,10
2016-09-28T05:54:17.468Z,15
2016-09-28T05:54:49.820Z,15
2016-09-28T05:55:22.167Z,15
2016-09-28T05:55:54.495Z,15
2016-09-28T05:56:26.816Z,15
2016-09-28T05:56:59.139Z,15
2016-09-28T05:57:31.477Z,15
2016-09-28T05:58:03.826Z,15
2016-09-28T05:58:36.151Z,15
2016-09-28T05:59:08.457Z,15
2016-09-28T05:59:40.789Z,15
2016-09-28T06:00:13.110Z,15
2016-09-28T06:00:45.446Z,15
2016-09-28T06:01:17.774Z,15
2016-09-28T06:01:50.126Z,15
2016-09-28T06:02:23.894Z,15
2016-09-28T06:02:56.240Z,15
2016-09-28T06:03:28.717Z,15
2016-09-28T06:04:01.207Z,15
2016-09-28T06:04:34.535Z,15
2016-09-28T06:05:06.866Z,15
2016-09-28T06:05:39.208Z,15
2016-09-28T06:06:11.539Z,15
2016-09-28T06:06:43.960Z,15
2016-09-28T06:07:16.326Z,15
2016-09-28T06:07:48.643Z,10
2016-09-28T06:08:20.966Z,10
2016-09-28T06:08:53.297Z,10
2016-09-28T06:09:27.033Z,10
2016-09-28T06:09:59.388Z,15
2016-09-28T06:10:31.700Z,15
2016-09-28T06:11:04.103Z,15
2016-09-28T06:11:36.477Z,15
2016-09-28T06:12:08.797Z,15
2016-09-28T06:12:41.110Z,20
2016-09-28T06:13:13.436Z,20
2016-09-28T06:13:45.752Z,20
2016-09-28T06:14:18.374Z,20
2016-09-28T06:14:50.740Z,20
2016-09-28T06:15:23.057Z,20
2016-09-28T06:15:55.390Z,20
2016-09-28T06:16:27.724Z,20
2016-09-28T06:17:00.064Z,20
2016-09-28T06:17:32.386Z,20
2016-09-28T06:18:04.704Z,20
2016-09-28T06:18:37.018Z,15
2016-09-28T06:19:09.339Z,15
2016-09-28T06:19:41.711Z,15
2016-09-28T06:20:14.068Z,20
2016-09-28T06:20:47.286Z,20
2016-09-28T06:21:20.476Z,20
2016-09-28T06:21:53.446Z,15
2016-09-28T06:22:26.119Z,15
2016-09-28T06:22:58.565Z,10
2016-09-28T06:23:30.983Z,10
2016-09-28T06:24:03.627Z,10
2016-09-28T06:24:36.062Z,10
2016-09-28T06:25:08.414Z,10
2016-09-28T06:25:41.047Z,10
2016-09-28T06:26:13.355Z,10
2016-09-28T06:26:45.855Z,10
2016-09-28T06:27:18.740Z,10
2016-09-28T06:27:51.057Z,10
2016-09-28T06:28:24.015Z,10
2016-09-28T06:28:56.293Z,10
2016-09-28T06:29:28.884Z,10
2016-09-28T06:30:04.421Z,10
2016-09-28T06:30:38.730Z,10
2016-09-28T06:31:11.794Z,10
2016-09-28T06:31:45.687Z,15
2016-09-28T06:32:19.684Z,15
2016-09-28T06:32:53.443Z,20
2016-09-28T06:33:26.243Z,20
2016-09-28T06:34:00.809Z,20
2016-09-28T06:34:34.744Z,20
2016-09-28T06:35:07.939Z,15
2016-09-28T06:35:41.659Z,15
2016-09-28T06:36:15.129Z,15
2016-09-28T06:36:49.179Z,20
2016-09-28T06:37:21.713Z,20
2016-09-28T06:37:56.203Z,20
2016-09-28T06:38:31.512Z,20
2016-09-28T06:39:05.095Z,20
2016-09-28T06:39:37.598Z,20
2016-09-28T06:40:11.535Z,20
2016-09-28T06:40:44.690Z,20
2016-09-28T06:41:17.918Z,25
2016-09-28T06:41:52.315Z,25
2016-09-28T06:42:25.364Z,25
2016-09-28T06:42:57.954Z,25
2016-09-28T06:43:31.477Z,25
2016-09-28T06:44:04.879Z,20
2016-09-28T06:44:38.327Z,20
2016-09-28T06:45:11.080Z,20
2016-09-28T06:45:48.539Z,20
2016-09-28T06:46:21.774Z,20
2016-09-28T06:46:55.079Z,20
2016-09-28T06:47:28.287Z,20
2016-09-28T06:48:01.201Z,20
2016-09-28T06:48:35.389Z,20
2016-09-28T06:49:08.560Z,20
2016-09-28T06:49:41.725Z,20
2016-09-28T06:50:15.336Z,20
2016-09-28T06:50:48.416Z,20
2016-09-28T06:51:21.585Z,20
2016-09-28T06:51:55.538Z,20
2016-09-28T06:52:28.881Z,20
2016-09-28T06:53:01.884Z,20
2016-09-28T06:53:35.544Z,25
2016-09-28T06:54:12.010Z,25
2016-09-28T06:54:46.292Z,25
2016-09-28T06:55:19.450Z,25
2016-09-28T06:55:53.072Z,25
2016-09-28T06:56:26.258Z,30
2016-09-28T06:57:00.142Z,30
2016-09-28T06:57:33.108Z,30
2016-09-28T06:58:06.654Z,30
2016-09-28T06:58:41.223Z,30
2016-09-28T06:59:16.060Z,25
2016-09-28T06:59:49.750Z,25
2016-09-28T07:00:24.293Z,20
2016-09-28T07:01:00.258Z,20
2016-09-28T07:01:40.568Z,25
2016-09-28T07:02:21.061Z,30
2016-09-28T07:03:13.055Z,35
2016-09-28T07:03:48.049Z,40
2016-09-28T07:04:28.681Z,40
2016-09-28T07:05:06.599Z,40
2016-09-28T07:05:47.060Z,40
2016-09-28T07:06:28.563Z,40
2016-09-28T07:07:04.206Z,45
2016-09-28T07:07:38.026Z,45
2016-09-28T07:08:10.978Z,45
2016-09-28T07:08:45.136Z,50
2016-09-28T07:09:27.061Z,50
2016-09-28T07:10:09.580Z,50
2016-09-28T07:10:52.055Z,90
2016-09-28T07:11:42.069Z,55
2016-09-28T07:12:25.070Z,50
2016-09-28T07:13:07.806Z,55
2016-09-28T07:13:52.587Z,65
2016-09-28T07:14:38.562Z,55
2016-09-28T07:15:17.062Z,55
2016-09-28T07:17:02.753Z,50
2016-09-28T07:17:50.099Z,45
2016-09-28T07:18:34.566Z,55
2016-09-28T07:19:15.095Z,55
2016-09-28T07:19:51.007Z,70
2016-09-28T07:20:29.083Z,70
2016-09-28T07:21:07.575Z,75
2016-09-28T07:21:46.065Z,95
2016-09-28T07:22:32.098Z,90
2016-09-28T07:23:16.079Z,95
2016-09-28T07:23:58.576Z,105
2016-09-28T07:24:38.595Z,115
2016-09-28T07:25:15.573Z,100
2016-09-28T07:25:50.081Z,80
2016-09-28T07:26:25.549Z,60
2016-09-28T07:26:58.634Z,70
2016-09-28T07:27:30.982Z,70
2016-09-28T07:28:03.304Z,65
2016-09-28T07:28:35.648Z,65
2016-09-28T07:29:07.985Z,65
2016-09-28T07:29:40.356Z,70
2016-09-28T07:30:13.442Z,55
2016-09-28T07:30:45.777Z,45
2016-09-28T07:31:18.101Z,45
2016-09-28T07:31:50.514Z,45
2016-09-28T07:32:22.844Z,45
2016-09-28T07:32:55.175Z,45
2016-09-28T07:33:27.525Z,45
2016-09-28T07:34:00.439Z,50
2016-09-28T07:34:33.598Z,50
2016-09-28T07:35:06.701Z,55
2016-09-28T07:35:40.340Z,50
2016-09-28T07:36:12.706Z,50
2016-09-28T07:36:45.281Z,45
2016-09-28T07:37:18.107Z,45
2016-09-28T07:37:51.528Z,50
2016-09-28T07:38:25.104Z,45
2016-09-28T07:38:59.065Z,45
2016-09-28T07:39:31.944Z,50
2016-09-28T07:40:04.919Z,45
2016-09-28T07:40:37.346Z,50
2016-09-28T07:41:10.690Z,50
2016-09-28T07:41:44.306Z,55
2016-09-28T07:42:18.563Z,75
2016-09-28T07:42:53.502Z,80
2016-09-28T07:43:26.807Z,80
2016-09-28T07:43:59.754Z,75
2016-09-28T07:44:33.466Z,55
2016-09-28T07:45:06.193Z,65
2016-09-28T07:45:40.068Z,65
2016-09-28T07:46:13.063Z,95
2016-09-28T07:46:46.040Z,85
2016-09-28T07:47:20.009Z,85
2016-09-28T07:49:13.295Z,80
2016-09-28T07:49:45.790Z,90
2016-09-28T07:50:18.358Z,90
2016-09-28T07:50:51.666Z,100
2016-09-28T07:51:24.291Z,100
2016-09-28T07:51:57.162Z,105
2016-09-28T07:52:30.179Z,105
2016-09-28T07:53:03.353Z,100
2016-09-28T07:53:36.476Z,105
2016-09-28T07:54:09.449Z,100
2016-09-28T07:54:42.599Z,80
2016-09-28T07:55:15.369Z,80
2016-09-28T07:55:48.152Z,115
2016-09-28T07:56:21.174Z,110
2016-09-28T07:56:54.452Z,85
2016-09-28T07:57:27.326Z,85
2016-09-28T07:58:00.344Z,90
2016-09-28T07:58:34.640Z,100
2016-09-28T07:59:07.634Z,110
2016-09-28T07:59:41.770Z,105
2016-09-28T08:00:15.197Z,95
2016-09-28T08:00:48.176Z,80
2016-09-28T08:01:21.465Z,80
2016-09-28T08:01:55.781Z,70
2016-09-28T08:02:32.071Z,75
2016-09-28T08:03:04.585Z,80